sensor_id;sensor_type;location;lat;lon;timestamp;temperature;humidity
70051;SHT30;57391;51.306;22.680;2023-07-13T00:02:04;19.99;78.64
70051;SHT30;57391;51.306;22.680;2023-07-13T00:04:31;19.98;78.70
70051;SHT30;57391;51.306;22.680;2023-07-13T00:06:57;19.97;78.71
70051;SHT30;57391;51.306;22.680;2023-07-13T00:09:24;19.95;78.77
70051;SHT30;57391;51.306;22.680;2023-07-13T00:11:52;19.92;78.79
70051;SHT30;57391;51.306;22.680;2023-07-13T00:14:22;19.90;78.80
70051;SHT30;57391;51.306;22.680;2023-07-13T00:16:51;19.88;78.78
70051;SHT30;57391;51.306;22.680;2023-07-13T00:19:19;19.86;78.79
70051;SHT30;57391;51.306;22.680;2023-07-13T00:21:47;19.84;78.90
70051;SHT30;57391;51.306;22.680;2023-07-13T00:24:14;19.83;79.07
70051;SHT30;57391;51.306;22.680;2023-07-13T00:26:49;19.83;79.14
70051;SHT30;57391;51.306;22.680;2023-07-13T00:29:16;19.83;79.33
70051;SHT30;57391;51.306;22.680;2023-07-13T00:31:43;19.83;79.47
70051;SHT30;57391;51.306;22.680;2023-07-13T00:34:11;19.82;79.56
70051;SHT30;57391;51.306;22.680;2023-07-13T00:36:38;19.81;79.63
70051;SHT30;57391;51.306;22.680;2023-07-13T00:39:05;19.80;79.60
70051;SHT30;57391;51.306;22.680;2023-07-13T00:41:32;19.80;79.53
70051;SHT30;57391;51.306;22.680;2023-07-13T00:43:59;19.79;79.48
70051;SHT30;57391;51.306;22.680;2023-07-13T00:46:28;19.81;79.43
70051;SHT30;57391;51.306;22.680;2023-07-13T00:49:01;19.81;79.33
70051;SHT30;57391;51.306;22.680;2023-07-13T00:54:21;19.81;79.19
70051;SHT30;57391;51.306;22.680;2023-07-13T00:56:53;19.81;79.03
70051;SHT30;57391;51.306;22.680;2023-07-13T00:59:27;19.81;78.88
70051;SHT30;57391;51.306;22.680;2023-07-13T01:01:54;19.80;78.80
70051;SHT30;57391;51.306;22.680;2023-07-13T01:04:23;19.79;78.72
70051;SHT30;57391;51.306;22.680;2023-07-13T01:06:52;19.78;78.70
70051;SHT30;57391;51.306;22.680;2023-07-13T01:09:19;19.77;78.64
70051;SHT30;57391;51.306;22.680;2023-07-13T01:11:47;19.76;78.68
70051;SHT30;57391;51.306;22.680;2023-07-13T01:14:15;19.76;78.64
70051;SHT30;57391;51.306;22.680;2023-07-13T01:16:44;19.75;78.57
70051;SHT30;57391;51.306;22.680;2023-07-13T01:21:56;19.72;78.61
70051;SHT30;57391;51.306;22.680;2023-07-13T01:24:23;19.72;78.60
70051;SHT30;57391;51.306;22.680;2023-07-13T01:26:49;19.70;78.45
70051;SHT30;57391;51.306;22.680;2023-07-13T01:29:16;19.67;78.38
70051;SHT30;57391;51.306;22.680;2023-07-13T01:31:43;19.67;78.34
70051;SHT30;57391;51.306;22.680;2023-07-13T01:34:10;19.66;78.36
70051;SHT30;57391;51.306;22.680;2023-07-13T01:36:37;19.65;78.30
70051;SHT30;57391;51.306;22.680;2023-07-13T01:39:06;19.61;78.22
70051;SHT30;57391;51.306;22.680;2023-07-13T01:41:34;19.57;78.17
70051;SHT30;57391;51.306;22.680;2023-07-13T01:44:15;19.53;78.22
70051;SHT30;57391;51.306;22.680;2023-07-13T01:46:41;19.50;78.32
70051;SHT30;57391;51.306;22.680;2023-07-13T01:49:08;19.47;78.41
70051;SHT30;57391;51.306;22.680;2023-07-13T01:51:35;19.45;78.50
70051;SHT30;57391;51.306;22.680;2023-07-13T01:54:02;19.43;78.69
70051;SHT30;57391;51.306;22.680;2023-07-13T01:56:29;19.44;78.84
70051;SHT30;57391;51.306;22.680;2023-07-13T01:58:56;19.44;78.94
70051;SHT30;57391;51.306;22.680;2023-07-13T02:01:23;19.45;79.03
70051;SHT30;57391;51.306;22.680;2023-07-13T02:03:50;19.45;79.03
70051;SHT30;57391;51.306;22.680;2023-07-13T02:06:17;19.45;79.07
70051;SHT30;57391;51.306;22.680;2023-07-13T02:08:44;19.45;79.13
70051;SHT30;57391;51.306;22.680;2023-07-13T02:11:11;19.45;79.19
70051;SHT30;57391;51.306;22.680;2023-07-13T02:13:38;19.45;79.22
70051;SHT30;57391;51.306;22.680;2023-07-13T02:16:05;19.46;79.20
70051;SHT30;57391;51.306;22.680;2023-07-13T02:18:32;19.47;79.21
70051;SHT30;57391;51.306;22.680;2023-07-13T02:20:59;19.48;79.13
70051;SHT30;57391;51.306;22.680;2023-07-13T02:23:26;19.48;79.20
70051;SHT30;57391;51.306;22.680;2023-07-13T02:25:57;19.51;79.14
70051;SHT30;57391;51.306;22.680;2023-07-13T02:28:25;19.51;79.10
70051;SHT30;57391;51.306;22.680;2023-07-13T02:30:52;19.51;79.06
70051;SHT30;57391;51.306;22.680;2023-07-13T02:33:19;19.50;79.10
70051;SHT30;57391;51.306;22.680;2023-07-13T02:35:48;19.50;79.12
70051;SHT30;57391;51.306;22.680;2023-07-13T02:38:15;19.49;79.19
70051;SHT30;57391;51.306;22.680;2023-07-13T02:40:41;19.50;79.25
70051;SHT30;57391;51.306;22.680;2023-07-13T02:43:08;19.50;79.38
70051;SHT30;57391;51.306;22.680;2023-07-13T02:45:35;19.51;79.44
70051;SHT30;57391;51.306;22.680;2023-07-13T02:48:02;19.50;79.50
70051;SHT30;57391;51.306;22.680;2023-07-13T02:50:29;19.51;79.60
70051;SHT30;57391;51.306;22.680;2023-07-13T02:52:56;19.53;79.58
70051;SHT30;57391;51.306;22.680;2023-07-13T02:55:23;19.54;79.60
70051;SHT30;57391;51.306;22.680;2023-07-13T02:57:50;19.53;79.67
70051;SHT30;57391;51.306;22.680;2023-07-13T03:00:17;19.53;79.71
70051;SHT30;57391;51.306;22.680;2023-07-13T03:02:45;19.55;79.70
70051;SHT30;57391;51.306;22.680;2023-07-13T03:05:12;19.55;79.74
70051;SHT30;57391;51.306;22.680;2023-07-13T03:07:40;19.57;79.80
70051;SHT30;57391;51.306;22.680;2023-07-13T03:10:08;19.57;79.79
70051;SHT30;57391;51.306;22.680;2023-07-13T03:12:41;19.59;79.81
70051;SHT30;57391;51.306;22.680;2023-07-13T03:15:12;19.60;79.73
70051;SHT30;57391;51.306;22.680;2023-07-13T03:17:41;19.63;79.70
70051;SHT30;57391;51.306;22.680;2023-07-13T03:20:08;19.65;79.64
70051;SHT30;57391;51.306;22.680;2023-07-13T03:22:36;19.67;79.61
70051;SHT30;57391;51.306;22.680;2023-07-13T03:25:03;19.68;79.61
70051;SHT30;57391;51.306;22.680;2023-07-13T03:27:31;19.69;79.61
70051;SHT30;57391;51.306;22.680;2023-07-13T03:29:58;19.72;79.69
70051;SHT30;57391;51.306;22.680;2023-07-13T03:32:26;19.78;79.63
70051;SHT30;57391;51.306;22.680;2023-07-13T03:34:53;19.83;79.59
70051;SHT30;57391;51.306;22.680;2023-07-13T03:37:20;19.90;79.57
70051;SHT30;57391;51.306;22.680;2023-07-13T03:39:47;19.97;79.61
70051;SHT30;57391;51.306;22.680;2023-07-13T03:42:15;20.05;79.55
70051;SHT30;57391;51.306;22.680;2023-07-13T03:44:42;20.15;79.50
70051;SHT30;57391;51.306;22.680;2023-07-13T03:47:18;20.28;79.33
70051;SHT30;57391;51.306;22.680;2023-07-13T03:49:45;20.75;78.98
70051;SHT30;57391;51.306;22.680;2023-07-13T03:52:13;21.62;77.54
70051;SHT30;57391;51.306;22.680;2023-07-13T03:54:40;22.49;75.70
70051;SHT30;57391;51.306;22.680;2023-07-13T03:57:07;23.23;73.80
70051;SHT30;57391;51.306;22.680;2023-07-13T03:59:35;23.40;72.61
70051;SHT30;57391;51.306;22.680;2023-07-13T04:02:02;23.29;72.37
70051;SHT30;57391;51.306;22.680;2023-07-13T04:04:33;23.20;72.16
70051;SHT30;57391;51.306;22.680;2023-07-13T04:07:00;23.07;72.10
70051;SHT30;57391;51.306;22.680;2023-07-13T04:09:27;22.94;72.27
70051;SHT30;57391;51.306;22.680;2023-07-13T04:11:54;22.98;72.38
70051;SHT30;57391;51.306;22.680;2023-07-13T04:14:20;23.76;71.44
70051;SHT30;57391;51.306;22.680;2023-07-13T04:16:47;24.75;69.60
70051;SHT30;57391;51.306;22.680;2023-07-13T04:19:14;25.78;67.52
70051;SHT30;57391;51.306;22.680;2023-07-13T04:21:41;26.59;65.64
70051;SHT30;57391;51.306;22.680;2023-07-13T04:24:08;27.12;63.77
70051;SHT30;57391;51.306;22.680;2023-07-13T04:26:35;27.62;62.43
70051;SHT30;57391;51.306;22.680;2023-07-13T04:29:02;28.23;60.64
70051;SHT30;57391;51.306;22.680;2023-07-13T04:31:30;28.14;60.25
70051;SHT30;57391;51.306;22.680;2023-07-13T04:33:57;28.30;59.43
70051;SHT30;57391;51.306;22.680;2023-07-13T04:36:25;28.27;58.97
70051;SHT30;57391;51.306;22.680;2023-07-13T04:38:55;27.88;59.26
70051;SHT30;57391;51.306;22.680;2023-07-13T04:41:22;27.45;60.11
70051;SHT30;57391;51.306;22.680;2023-07-13T04:43:49;26.96;60.60
70051;SHT30;57391;51.306;22.680;2023-07-13T04:46:16;26.50;61.51
70051;SHT30;57391;51.306;22.680;2023-07-13T04:48:45;26.13;62.33
70051;SHT30;57391;51.306;22.680;2023-07-13T04:51:12;25.79;63.09
70051;SHT30;57391;51.306;22.680;2023-07-13T04:53:39;25.46;63.86
70051;SHT30;57391;51.306;22.680;2023-07-13T04:56:06;25.17;64.64
70051;SHT30;57391;51.306;22.680;2023-07-13T04:58:33;24.96;65.25
70051;SHT30;57391;51.306;22.680;2023-07-13T05:01:02;24.81;65.58
70051;SHT30;57391;51.306;22.680;2023-07-13T05:03:31;24.64;66.25
70051;SHT30;57391;51.306;22.680;2023-07-13T05:05:59;24.50;67.11
70051;SHT30;57391;51.306;22.680;2023-07-13T05:08:28;24.38;67.58
70051;SHT30;57391;51.306;22.680;2023-07-13T05:10:55;24.26;67.79
70051;SHT30;57391;51.306;22.680;2023-07-13T05:13:22;24.17;67.95
70051;SHT30;57391;51.306;22.680;2023-07-13T05:15:59;24.11;68.26
70051;SHT30;57391;51.306;22.680;2023-07-13T05:18:29;24.02;68.70
70051;SHT30;57391;51.306;22.680;2023-07-13T05:21:04;23.93;68.83
70051;SHT30;57391;51.306;22.680;2023-07-13T05:23:34;23.87;69.29
70051;SHT30;57391;51.306;22.680;2023-07-13T05:26:02;23.84;69.31
70051;SHT30;57391;51.306;22.680;2023-07-13T05:28:30;23.81;69.25
70051;SHT30;57391;51.306;22.680;2023-07-13T05:30:59;23.80;69.28
70051;SHT30;57391;51.306;22.680;2023-07-13T05:33:26;23.82;69.46
70051;SHT30;57391;51.306;22.680;2023-07-13T05:35:54;23.82;69.56
70051;SHT30;57391;51.306;22.680;2023-07-13T05:38:21;23.83;69.09
70051;SHT30;57391;51.306;22.680;2023-07-13T05:40:49;23.81;68.82
70051;SHT30;57391;51.306;22.680;2023-07-13T05:43:17;23.80;69.38
70051;SHT30;57391;51.306;22.680;2023-07-13T05:45:44;23.80;69.63
70051;SHT30;57391;51.306;22.680;2023-07-13T05:48:11;23.79;69.62
70051;SHT30;57391;51.306;22.680;2023-07-13T05:50:38;23.79;69.36
70051;SHT30;57391;51.306;22.680;2023-07-13T05:53:05;23.78;69.05
70051;SHT30;57391;51.306;22.680;2023-07-13T05:55:32;23.78;69.15
70051;SHT30;57391;51.306;22.680;2023-07-13T05:58:00;23.76;69.09
70051;SHT30;57391;51.306;22.680;2023-07-13T06:00:28;23.73;68.63
70051;SHT30;57391;51.306;22.680;2023-07-13T06:02:55;23.73;69.04
70051;SHT30;57391;51.306;22.680;2023-07-13T06:05:23;23.77;68.86
70051;SHT30;57391;51.306;22.680;2023-07-13T06:07:50;23.80;68.83
70051;SHT30;57391;51.306;22.680;2023-07-13T06:10:17;23.82;68.65
70051;SHT30;57391;51.306;22.680;2023-07-13T06:12:44;23.80;68.04
70051;SHT30;57391;51.306;22.680;2023-07-13T06:15:11;23.78;68.16
70051;SHT30;57391;51.306;22.680;2023-07-13T06:17:38;23.77;68.62
70051;SHT30;57391;51.306;22.680;2023-07-13T06:20:05;23.88;68.60
70051;SHT30;57391;51.306;22.680;2023-07-13T06:22:33;23.97;67.92
70051;SHT30;57391;51.306;22.680;2023-07-13T06:25:00;24.04;67.87
70051;SHT30;57391;51.306;22.680;2023-07-13T06:27:27;24.15;67.28
70051;SHT30;57391;51.306;22.680;2023-07-13T06:29:54;24.19;67.63
70051;SHT30;57391;51.306;22.680;2023-07-13T06:32:21;24.29;67.59
70051;SHT30;57391;51.306;22.680;2023-07-13T06:34:48;24.42;67.58
70051;SHT30;57391;51.306;22.680;2023-07-13T06:37:15;24.57;67.01
70051;SHT30;57391;51.306;22.680;2023-07-13T06:39:42;24.74;66.91
70051;SHT30;57391;51.306;22.680;2023-07-13T06:42:09;24.76;66.16
70051;SHT30;57391;51.306;22.680;2023-07-13T06:44:37;24.75;65.81
70051;SHT30;57391;51.306;22.680;2023-07-13T06:47:04;24.70;65.59
70051;SHT30;57391;51.306;22.680;2023-07-13T06:49:31;24.60;65.58
70051;SHT30;57391;51.306;22.680;2023-07-13T06:51:58;24.49;66.06
70051;SHT30;57391;51.306;22.680;2023-07-13T06:54:25;24.42;66.37
70051;SHT30;57391;51.306;22.680;2023-07-13T06:56:52;24.38;66.81
70051;SHT30;57391;51.306;22.680;2023-07-13T06:59:19;24.31;66.61
70051;SHT30;57391;51.306;22.680;2023-07-13T07:01:46;24.25;66.74
70051;SHT30;57391;51.306;22.680;2023-07-13T07:04:13;24.20;66.43
70051;SHT30;57391;51.306;22.680;2023-07-13T07:06:39;24.41;66.24
70051;SHT30;57391;51.306;22.680;2023-07-13T07:09:06;25.01;65.59
70051;SHT30;57391;51.306;22.680;2023-07-13T07:11:33;25.55;64.42
70051;SHT30;57391;51.306;22.680;2023-07-13T07:14:00;25.96;63.82
70051;SHT30;57391;51.306;22.680;2023-07-13T07:16:26;26.06;62.92
70051;SHT30;57391;51.306;22.680;2023-07-13T07:18:53;26.17;62.16
70051;SHT30;57391;51.306;22.680;2023-07-13T07:21:21;26.58;61.44
70051;SHT30;57391;51.306;22.680;2023-07-13T07:23:49;27.27;60.22
70051;SHT30;57391;51.306;22.680;2023-07-13T07:26:18;27.87;58.59
70051;SHT30;57391;51.306;22.680;2023-07-13T07:28:45;28.43;57.08
70051;SHT30;57391;51.306;22.680;2023-07-13T07:31:12;28.76;55.97
70051;SHT30;57391;51.306;22.680;2023-07-13T07:33:39;29.22;54.67
70051;SHT30;57391;51.306;22.680;2023-07-13T07:36:06;29.46;53.01
70051;SHT30;57391;51.306;22.680;2023-07-13T07:38:33;29.55;53.50
70051;SHT30;57391;51.306;22.680;2023-07-13T07:41:03;29.53;53.28
70051;SHT30;57391;51.306;22.680;2023-07-13T07:43:31;29.49;53.83
70051;SHT30;57391;51.306;22.680;2023-07-13T07:45:58;29.41;53.81
70051;SHT30;57391;51.306;22.680;2023-07-13T07:48:25;29.22;54.00
70051;SHT30;57391;51.306;22.680;2023-07-13T07:50:52;29.00;54.55
70051;SHT30;57391;51.306;22.680;2023-07-13T07:53:19;28.79;54.51
70051;SHT30;57391;51.306;22.680;2023-07-13T07:55:46;28.57;54.66
70051;SHT30;57391;51.306;22.680;2023-07-13T07:58:14;28.33;54.54
70051;SHT30;57391;51.306;22.680;2023-07-13T08:00:41;28.02;54.92
70051;SHT30;57391;51.306;22.680;2023-07-13T08:03:08;27.78;55.85
70051;SHT30;57391;51.306;22.680;2023-07-13T08:05:36;27.59;56.55
70051;SHT30;57391;51.306;22.680;2023-07-13T08:08:03;27.46;57.18
70051;SHT30;57391;51.306;22.680;2023-07-13T08:10:30;27.34;57.40
70051;SHT30;57391;51.306;22.680;2023-07-13T08:12:57;27.23;58.08
70051;SHT30;57391;51.306;22.680;2023-07-13T08:15:24;27.14;58.04
70051;SHT30;57391;51.306;22.680;2023-07-13T08:17:51;27.04;58.41
70051;SHT30;57391;51.306;22.680;2023-07-13T08:20:18;26.96;59.01
70051;SHT30;57391;51.306;22.680;2023-07-13T08:22:45;26.84;59.10
70051;SHT30;57391;51.306;22.680;2023-07-13T08:25:12;26.76;59.88
70051;SHT30;57391;51.306;22.680;2023-07-13T08:27:39;26.64;60.15
70051;SHT30;57391;51.306;22.680;2023-07-13T08:30:06;26.54;60.57
70051;SHT30;57391;51.306;22.680;2023-07-13T08:32:35;26.42;60.71
70051;SHT30;57391;51.306;22.680;2023-07-13T08:35:03;26.32;60.73
70051;SHT30;57391;51.306;22.680;2023-07-13T08:37:32;26.20;60.81
70051;SHT30;57391;51.306;22.680;2023-07-13T08:39:58;26.08;61.16
70051;SHT30;57391;51.306;22.680;2023-07-13T08:45:25;25.91;62.14
70051;SHT30;57391;51.306;22.680;2023-07-13T08:50:57;25.84;62.42
70051;SHT30;57391;51.306;22.680;2023-07-13T08:53:36;25.90;63.02
70051;SHT30;57391;51.306;22.680;2023-07-13T08:56:16;25.95;63.04
70051;SHT30;57391;51.306;22.680;2023-07-13T08:58:51;25.97;63.07
70051;SHT30;57391;51.306;22.680;2023-07-13T09:04:41;26.00;63.08
70051;SHT30;57391;51.306;22.680;2023-07-13T09:10:26;26.00;62.00
70051;SHT30;57391;51.306;22.680;2023-07-13T09:15:44;26.00;61.90
70051;SHT30;57391;51.306;22.680;2023-07-13T09:21:05;26.00;62.47
70051;SHT30;57391;51.306;22.680;2023-07-13T09:23:42;26.00;63.02
70051;SHT30;57391;51.306;22.680;2023-07-13T09:26:17;26.02;63.47
70051;SHT30;57391;51.306;22.680;2023-07-13T09:28:58;26.03;63.36
70051;SHT30;57391;51.306;22.680;2023-07-13T09:31:42;25.96;63.12
70051;SHT30;57391;51.306;22.680;2023-07-13T09:34:15;25.81;63.29
70051;SHT30;57391;51.306;22.680;2023-07-13T09:36:43;25.72;63.42
70051;SHT30;57391;51.306;22.680;2023-07-13T09:39:15;25.66;63.87
70051;SHT30;57391;51.306;22.680;2023-07-13T09:42:07;25.61;64.45
70051;SHT30;57391;51.306;22.680;2023-07-13T09:44:53;25.58;64.38
70051;SHT30;57391;51.306;22.680;2023-07-13T09:47:29;25.56;64.52
70051;SHT30;57391;51.306;22.680;2023-07-13T09:50:00;25.60;65.06
70051;SHT30;57391;51.306;22.680;2023-07-13T09:52:40;25.63;64.35
70051;SHT30;57391;51.306;22.680;2023-07-13T09:55:31;25.59;64.44
70051;SHT30;57391;51.306;22.680;2023-07-13T10:00:57;25.63;64.63
70051;SHT30;57391;51.306;22.680;2023-07-13T10:03:30;25.62;64.60
70051;SHT30;57391;51.306;22.680;2023-07-13T10:06:10;25.60;64.44
70051;SHT30;57391;51.306;22.680;2023-07-13T10:08:41;25.58;65.01
70051;SHT30;57391;51.306;22.680;2023-07-13T10:13:44;25.64;64.81
70051;SHT30;57391;51.306;22.680;2023-07-13T10:16:24;25.67;64.85
70051;SHT30;57391;51.306;22.680;2023-07-13T10:19:00;25.69;65.06
70051;SHT30;57391;51.306;22.680;2023-07-13T10:22:16;25.72;65.26
70051;SHT30;57391;51.306;22.680;2023-07-13T10:24:52;25.77;65.19
70051;SHT30;57391;51.306;22.680;2023-07-13T10:27:23;25.78;65.06
70051;SHT30;57391;51.306;22.680;2023-07-13T10:32:52;25.75;65.36
70051;SHT30;57391;51.306;22.680;2023-07-13T10:35:20;25.73;65.22
70051;SHT30;57391;51.306;22.680;2023-07-13T10:37:51;25.73;65.24
70051;SHT30;57391;51.306;22.680;2023-07-13T10:40:28;25.73;65.39
70051;SHT30;57391;51.306;22.680;2023-07-13T10:43:45;25.76;65.50
70051;SHT30;57391;51.306;22.680;2023-07-13T10:46:18;25.72;65.20
70051;SHT30;57391;51.306;22.680;2023-07-13T10:48:51;25.69;65.22
70051;SHT30;57391;51.306;22.680;2023-07-13T10:51:24;25.63;65.51
70051;SHT30;57391;51.306;22.680;2023-07-13T11:00:33;25.58;64.97
70051;SHT30;57391;51.306;22.680;2023-07-13T11:02:42;25.61;64.88
70051;SHT30;57391;51.306;22.680;2023-07-13T11:06:03;25.57;64.10
70051;SHT30;57391;51.306;22.680;2023-07-13T11:08:51;25.46;64.18
70051;SHT30;57391;51.306;22.680;2023-07-13T11:18:45;25.32;65.01
70051;SHT30;57391;51.306;22.680;2023-07-13T11:27:36;25.36;64.74
70051;SHT30;57391;51.306;22.680;2023-07-13T11:30:19;25.35;65.18
70051;SHT30;57391;51.306;22.680;2023-07-13T11:32:51;25.36;65.25
70051;SHT30;57391;51.306;22.680;2023-07-13T11:35:51;25.38;65.33
70051;SHT30;57391;51.306;22.680;2023-07-13T11:38:21;25.37;65.49
70051;SHT30;57391;51.306;22.680;2023-07-13T11:40:54;25.37;65.03
70051;SHT30;57391;51.306;22.680;2023-07-13T11:43:24;25.37;65.33
70051;SHT30;57391;51.306;22.680;2023-07-13T11:45:52;25.38;65.35
70051;SHT30;57391;51.306;22.680;2023-07-13T11:48:26;25.39;65.68
70051;SHT30;57391;51.306;22.680;2023-07-13T11:50:59;25.42;65.59
70051;SHT30;57391;51.306;22.680;2023-07-13T11:53:44;25.45;65.82
70051;SHT30;57391;51.306;22.680;2023-07-13T11:56:13;25.46;65.98
70051;SHT30;57391;51.306;22.680;2023-07-13T11:58:41;25.48;65.98
70051;SHT30;57391;51.306;22.680;2023-07-13T12:01:15;25.47;65.72
70051;SHT30;57391;51.306;22.680;2023-07-13T12:03:48;25.49;66.06
70051;SHT30;57391;51.306;22.680;2023-07-13T12:06:35;25.52;65.87
70051;SHT30;57391;51.306;22.680;2023-07-13T12:09:12;25.55;65.69
70051;SHT30;57391;51.306;22.680;2023-07-13T12:11:44;25.56;66.03
70051;SHT30;57391;51.306;22.680;2023-07-13T12:14:14;25.57;65.91
70051;SHT30;57391;51.306;22.680;2023-07-13T12:16:43;25.57;65.57
70051;SHT30;57391;51.306;22.680;2023-07-13T12:19:20;25.56;65.24
70051;SHT30;57391;51.306;22.680;2023-07-13T12:21:52;25.54;65.64
70051;SHT30;57391;51.306;22.680;2023-07-13T12:24:23;25.56;65.51
70051;SHT30;57391;51.306;22.680;2023-07-13T12:26:53;25.58;65.91
70051;SHT30;57391;51.306;22.680;2023-07-13T12:29:31;25.59;65.82
70051;SHT30;57391;51.306;22.680;2023-07-13T12:31:59;25.60;65.87
70051;SHT30;57391;51.306;22.680;2023-07-13T12:34:26;25.62;65.85
70051;SHT30;57391;51.306;22.680;2023-07-13T12:37:01;25.60;65.31
70051;SHT30;57391;51.306;22.680;2023-07-13T12:39:36;25.58;65.60
70051;SHT30;57391;51.306;22.680;2023-07-13T12:42:26;25.55;65.55
70051;SHT30;57391;51.306;22.680;2023-07-13T12:45:19;25.54;65.39
70051;SHT30;57391;51.306;22.680;2023-07-13T12:47:56;25.54;65.20
70051;SHT30;57391;51.306;22.680;2023-07-13T12:50:42;25.53;64.85
70051;SHT30;57391;51.306;22.680;2023-07-13T12:53:19;25.54;64.76
70051;SHT30;57391;51.306;22.680;2023-07-13T12:55:54;25.54;64.40
70051;SHT30;57391;51.306;22.680;2023-07-13T13:01:04;25.48;64.63
70051;SHT30;57391;51.306;22.680;2023-07-13T13:03:33;25.45;64.55
70051;SHT30;57391;51.306;22.680;2023-07-13T13:06:06;25.44;64.66
70051;SHT30;57391;51.306;22.680;2023-07-13T13:08:46;25.46;64.80
70051;SHT30;57391;51.306;22.680;2023-07-13T13:11:16;25.47;65.26
70051;SHT30;57391;51.306;22.680;2023-07-13T13:13:45;25.50;64.70
70051;SHT30;57391;51.306;22.680;2023-07-13T13:19:00;25.48;64.30
70051;SHT30;57391;51.306;22.680;2023-07-13T13:21:37;25.49;64.17
70051;SHT30;57391;51.306;22.680;2023-07-13T13:24:09;25.49;63.86
70051;SHT30;57391;51.306;22.680;2023-07-13T13:26:43;25.50;64.21
70051;SHT30;57391;51.306;22.680;2023-07-13T13:29:15;25.51;64.09
70051;SHT30;57391;51.306;22.680;2023-07-13T13:31:46;25.52;64.54
70051;SHT30;57391;51.306;22.680;2023-07-13T13:34:15;25.52;65.13
70051;SHT30;57391;51.306;22.680;2023-07-13T13:36:44;25.53;65.40
70051;SHT30;57391;51.306;22.680;2023-07-13T13:39:20;25.54;65.68
70051;SHT30;57391;51.306;22.680;2023-07-13T13:41:54;25.53;65.67
70051;SHT30;57391;51.306;22.680;2023-07-13T13:44:21;25.53;65.58
70051;SHT30;57391;51.306;22.680;2023-07-13T13:46:53;25.53;65.75
70051;SHT30;57391;51.306;22.680;2023-07-13T13:49:24;25.53;65.53
70051;SHT30;57391;51.306;22.680;2023-07-13T13:51:54;25.53;65.37
70051;SHT30;57391;51.306;22.680;2023-07-13T13:54:22;25.53;65.53
70051;SHT30;57391;51.306;22.680;2023-07-13T13:56:51;25.53;65.54
70051;SHT30;57391;51.306;22.680;2023-07-13T13:59:19;25.52;65.81
70051;SHT30;57391;51.306;22.680;2023-07-13T14:01:46;25.53;65.76
70051;SHT30;57391;51.306;22.680;2023-07-13T14:04:21;25.52;65.70
70051;SHT30;57391;51.306;22.680;2023-07-13T14:06:49;25.51;65.77
70051;SHT30;57391;51.306;22.680;2023-07-13T14:09:17;25.50;65.50
70051;SHT30;57391;51.306;22.680;2023-07-13T14:11:46;25.50;65.88
70051;SHT30;57391;51.306;22.680;2023-07-13T14:14:19;25.47;65.96
70051;SHT30;57391;51.306;22.680;2023-07-13T14:16:50;25.44;65.74
70051;SHT30;57391;51.306;22.680;2023-07-13T14:19:20;25.41;65.88
70051;SHT30;57391;51.306;22.680;2023-07-13T14:21:47;25.38;66.19
70051;SHT30;57391;51.306;22.680;2023-07-13T14:24:15;25.35;66.33
70051;SHT30;57391;51.306;22.680;2023-07-13T14:26:42;25.33;66.50
70051;SHT30;57391;51.306;22.680;2023-07-13T14:29:15;25.28;66.67
70051;SHT30;57391;51.306;22.680;2023-07-13T14:31:45;25.25;66.44
70051;SHT30;57391;51.306;22.680;2023-07-13T14:34:13;25.23;66.05
70051;SHT30;57391;51.306;22.680;2023-07-13T14:36:42;25.24;66.08
70051;SHT30;57391;51.306;22.680;2023-07-13T14:39:20;25.23;66.33
70051;SHT30;57391;51.306;22.680;2023-07-13T14:41:51;25.20;66.63
70051;SHT30;57391;51.306;22.680;2023-07-13T14:44:22;25.15;67.28
70051;SHT30;57391;51.306;22.680;2023-07-13T14:46:55;25.12;67.32
70051;SHT30;57391;51.306;22.680;2023-07-13T14:49:27;25.07;67.92
70051;SHT30;57391;51.306;22.680;2023-07-13T14:54:43;24.95;69.23
70051;SHT30;57391;51.306;22.680;2023-07-13T14:57:12;24.91;69.26
70051;SHT30;57391;51.306;22.680;2023-07-13T14:59:47;24.85;69.55
70051;SHT30;57391;51.306;22.680;2023-07-13T15:02:29;24.82;69.42
70051;SHT30;57391;51.306;22.680;2023-07-13T15:05:01;24.81;69.65
70051;SHT30;57391;51.306;22.680;2023-07-13T15:07:32;24.73;70.27
70051;SHT30;57391;51.306;22.680;2023-07-13T15:10:00;24.65;70.63
70051;SHT30;57391;51.306;22.680;2023-07-13T15:12:27;24.57;71.13
70051;SHT30;57391;51.306;22.680;2023-07-13T15:14:54;24.49;71.51
70051;SHT30;57391;51.306;22.680;2023-07-13T15:17:35;24.42;71.76
70051;SHT30;57391;51.306;22.680;2023-07-13T15:20:14;24.35;71.85
70051;SHT30;57391;51.306;22.680;2023-07-13T15:22:47;24.24;70.78
70051;SHT30;57391;51.306;22.680;2023-07-13T15:25:19;23.95;68.74
70051;SHT30;57391;51.306;22.680;2023-07-13T15:27:54;23.57;68.21
70051;SHT30;57391;51.306;22.680;2023-07-13T15:30:27;23.22;68.74
70051;SHT30;57391;51.306;22.680;2023-07-13T15:32:57;22.92;69.21
70051;SHT30;57391;51.306;22.680;2023-07-13T15:35:35;22.64;69.65
70051;SHT30;57391;51.306;22.680;2023-07-13T15:38:10;22.43;70.13
70051;SHT30;57391;51.306;22.680;2023-07-13T15:40:42;22.16;70.46
70051;SHT30;57391;51.306;22.680;2023-07-13T15:43:12;21.86;71.19
70051;SHT30;57391;51.306;22.680;2023-07-13T15:45:41;21.64;72.07
70051;SHT30;57391;51.306;22.680;2023-07-13T15:48:13;21.40;72.55
70051;SHT30;57391;51.306;22.680;2023-07-13T15:50:44;21.21;73.08
70051;SHT30;57391;51.306;22.680;2023-07-13T15:53:19;21.01;73.76
70051;SHT30;57391;51.306;22.680;2023-07-13T15:55:50;20.82;74.31
70051;SHT30;57391;51.306;22.680;2023-07-13T15:58:18;20.67;74.81
70051;SHT30;57391;51.306;22.680;2023-07-13T16:00:46;20.55;74.85
70051;SHT30;57391;51.306;22.680;2023-07-13T16:03:17;20.44;75.12
70051;SHT30;57391;51.306;22.680;2023-07-13T16:05:45;20.30;75.21
70051;SHT30;57391;51.306;22.680;2023-07-13T16:08:27;20.21;75.59
70051;SHT30;57391;51.306;22.680;2023-07-13T16:10:58;20.11;75.56
70051;SHT30;57391;51.306;22.680;2023-07-13T16:13:26;19.97;75.93
70051;SHT30;57391;51.306;22.680;2023-07-13T16:15:54;19.83;76.31
70051;SHT30;57391;51.306;22.680;2023-07-13T16:18:22;19.72;76.75
70051;SHT30;57391;51.306;22.680;2023-07-13T16:20:51;19.63;77.11
70051;SHT30;57391;51.306;22.680;2023-07-13T16:23:20;19.57;77.25
70051;SHT30;57391;51.306;22.680;2023-07-13T16:25:48;19.53;77.59
70051;SHT30;57391;51.306;22.680;2023-07-13T16:28:15;19.51;78.16
70051;SHT30;57391;51.306;22.680;2023-07-13T16:30:42;19.49;78.27
70051;SHT30;57391;51.306;22.680;2023-07-13T16:33:09;19.46;78.29
70051;SHT30;57391;51.306;22.680;2023-07-13T16:35:39;19.42;78.26